Time;durP1;ratioP1;P1;durP2;ratioP2;P2;SDS_P1;SDS_P2;PMS_P1;PMS_P2;Temp;Humidity;BMP_temperature;BMP_pressure;BME280_temperature;BME280_humidity;BME280_pressure;Samples;Min_cycle;Max_cycle;Signal;HPM_P1;HPM_P2
2021/04/22 00:00:09;;;;;;;;;;;;;;;;;;5072550;28;19920;-81
2021/04/22 00:02:34;;;;;;;;;;;;;;;;;;5057028;28;20002;-80
2021/04/22 00:05:00;;;;;;;;;;;;;;;;;;5057284;28;20353;-81
2021/04/22 00:07:25;;;;;;;;;;;;;;;;;;5073860;28;19923;-81
2021/04/22 00:09:50;;;;;;;;;;;;;;;;;;5074054;28;20372;-81
2021/04/22 00:12:16;;;;;;;;;;;;;;;;;;5073958;28;19916;-81
2021/04/22 00:14:41;;;;;;;;;;;;;;;;;;5073807;28;20018;-80
2021/04/22 00:17:09;;;;;;;;;;;;;;;;;;5073855;28;19912;-81
2021/04/22 00:19:35;;;;;;;;;;;;;;;;;;5074484;28;19924;-81
2021/04/22 00:22:00;;;;;;;;;;;;;;;;;;5045396;28;19921;-81
2021/04/22 00:24:26;;;;;;;;;;;;;;;;;;5053554;28;19913;-81
2021/04/22 00:26:51;;;;;;;;;;;;;;;;;;5038032;28;20404;-81
2021/04/22 00:29:16;;;;;;;;;;;;;;;;;;5037387;28;19913;-81
2021/04/22 00:31:42;;;;;;;;;;;;;;;;;;5036986;28;19920;-81
2021/04/22 00:34:07;;;;;;;;;;;;;;;;;;5053453;28;19920;-81
2021/04/22 00:36:32;;;;;;;;;;;;;;;;;;5062272;28;19916;-81
2021/04/22 00:38:57;;;;;;;;;;;;;;;;;;5036983;28;20003;-81
2021/04/22 00:41:23;;;;;;;;;;;;;;;;;;5043205;28;19917;-81
2021/04/22 00:43:49;;;;;;;;;;;;;;;;;;5036388;28;19999;-81
2021/04/22 00:46:14;;;;;;;;;;;;;;;;;;5036823;28;19977;-81
2021/04/22 00:48:40;;;;;;;;;;;;;;;;;;5056327;28;19917;-81
2021/04/22 00:51:05;;;;;;;;;;;;;;;;;;5054060;28;19939;-81
2021/04/22 00:53:30;;;;;;;;;;;;;;;;;;5054244;28;20383;-82
2021/04/22 00:55:57;;;;;;;;;;;;;;;;;;5040222;28;20207;-81
2021/04/22 00:58:22;;;;;;;;;;;;;;;;;;5024077;28;20005;-81
2021/04/22 01:00:55;;;;;;;;;;;;;;;;;;5023741;28;20013;-81
2021/04/22 01:03:20;;;;;;;;;;;;;;;;;;5049254;28;20286;-81
2021/04/22 01:06:04;;;;;;;;;;;;;;;;;;5077350;28;19919;-81
2021/04/22 01:08:29;;;;;;;;;;;;;;;;;;5043259;28;19978;-81
2021/04/22 01:10:55;;;;;;;;;;;;;;;;;;5059829;28;19955;-81
2021/04/22 01:13:20;;;;;;;;;;;;;;;;;;5060067;28;19938;-81
2021/04/22 01:15:46;;;;;;;;;;;;;;;;;;5060065;28;19916;-81
2021/04/22 01:18:11;;;;;;;;;;;;;;;;;;5077098;28;20006;-81
2021/04/22 01:20:39;;;;;;;;;;;;;;;;;;5075387;28;19916;-81
2021/04/22 01:23:05;;;;;;;;;;;;;;;;;;5076236;28;19995;-82
2021/04/22 01:25:31;;;;;;;;;;;;;;;;;;5060014;28;19912;-81
2021/04/22 01:27:57;;;;;;;;;;;;;;;;;;5076864;28;19919;-81
2021/04/22 01:30:23;;;;;;;;;;;;;;;;;;5055817;28;19916;-81
2021/04/22 01:32:49;;;;;;;;;;;;;;;;;;5039753;28;19923;-81
2021/04/22 01:35:15;;;;;;;;;;;;;;;;;;5056759;28;19916;-81
2021/04/22 01:37:41;;;;;;;;;;;;;;;;;;5042025;28;19920;-80
2021/04/22 01:40:06;;;;;;;;;;;;;;;;;;5059477;28;19912;-81
2021/04/22 01:42:31;;;;;;;;;;;;;;;;;;5076017;28;20286;-81
2021/04/22 01:44:57;;;;;;;;;;;;;;;;;;5059486;28;19920;-81
2021/04/22 01:47:22;;;;;;;;;;;;;;;;;;5076032;28;20384;-81
2021/04/22 01:49:47;;;;;;;;;;;;;;;;;;5060891;28;19917;-81
2021/04/22 01:52:13;;;;;;;;;;;;;;;;;;5039005;28;19919;-81
2021/04/22 01:54:38;;;;;;;;;;;;;;;;;;5050533;28;19917;-81
2021/04/22 01:57:04;;;;;;;;;;;;;;;;;;5072467;28;19916;-81
2021/04/22 01:59:29;;;;;;;;;;;;;;;;;;5056106;28;20324;-81
2021/04/22 02:01:54;;;;;;;;;;;;;;;;;;5056106;28;19917;-81
2021/04/22 02:04:20;;;;;;;;;;;;;;;;;;5059344;28;20374;-81
2021/04/22 02:06:47;;;;;;;;;;;;;;;;;;5058670;28;19955;-82
2021/04/22 02:09:12;;;;;;;;;;;;;;;;;;5058386;28;20393;-81
2021/04/22 02:11:38;;;;;;;;;;;;;;;;;;5056336;28;19920;-81
2021/04/22 02:14:03;;;;;;;;;;;;;;;;;;5057762;28;19912;-81
2021/04/22 02:16:28;;;;;;;;;;;;;;;;;;5066684;28;19930;-81
2021/04/22 02:18:54;;;;;;;;;;;;;;;;;;5055726;28;19912;-81
2021/04/22 02:21:19;;;;;;;;;;;;;;;;;;5055356;28;19928;-81
2021/04/22 02:23:44;;;;;;;;;;;;;;;;;;5041924;28;19920;-80
2021/04/22 02:26:10;;;;;;;;;;;;;;;;;;5075648;28;19916;-81
2021/04/22 02:28:35;;;;;;;;;;;;;;;;;;5058625;28;19912;-80
2021/04/22 02:31:01;;;;;;;;;;;;;;;;;;5075477;28;19912;-80
2021/04/22 02:33:26;;;;;;;;;;;;;;;;;;5058837;28;19968;-80
2021/04/22 02:35:51;;;;;;;;;;;;;;;;;;5092203;28;19912;-81
2021/04/22 02:38:17;;;;;;;;;;;;;;;;;;5075180;28;20000;-81
2021/04/22 02:40:43;;;;;;;;;;;;;;;;;;5075065;28;19920;-81
2021/04/22 02:43:10;;;;;;;;;;;;;;;;;;5074174;28;20401;-81
2021/04/22 02:45:36;;;;;;;;;;;;;;;;;;5075620;28;20278;-80
2021/04/22 02:48:02;;;;;;;;;;;;;;;;;;5058798;28;19912;-81
2021/04/22 02:50:29;;;;;;;;;;;;;;;;;;5041416;28;19912;-80
2021/04/22 02:52:54;;;;;;;;;;;;;;;;;;5041321;28;19942;-80
2021/04/22 02:55:19;;;;;;;;;;;;;;;;;;5041981;28;19968;-81
2021/04/22 02:57:44;;;;;;;;;;;;;;;;;;5054559;28;19923;-81
2021/04/22 03:00:11;;;;;;;;;;;;;;;;;;5055140;28;19917;-81
2021/04/22 03:02:36;;;;;;;;;;;;;;;;;;5024072;28;20331;-81
2021/04/22 03:05:02;;;;;;;;;;;;;;;;;;5074504;28;19912;-81
2021/04/22 03:07:27;;;;;;;;;;;;;;;;;;5057752;28;19912;-81
2021/04/22 03:09:52;;;;;;;;;;;;;;;;;;5058187;28;19912;-81
2021/04/22 03:12:17;;;;;;;;;;;;;;;;;;5041044;28;19916;-81
2021/04/22 03:14:43;;;;;;;;;;;;;;;;;;5061963;28;19925;-81
2021/04/22 03:17:08;;;;;;;;;;;;;;;;;;5074117;28;19916;-81
2021/04/22 03:19:33;;;;;;;;;;;;;;;;;;5070975;28;19939;-81
2021/04/22 03:21:59;;;;;;;;;;;;;;;;;;5037701;28;19966;-81
2021/04/22 03:24:24;;;;;;;;;;;;;;;;;;5037820;28;19917;-80
2021/04/22 03:26:49;;;;;;;;;;;;;;;;;;5054060;28;19931;-80
2021/04/22 03:29:15;;;;;;;;;;;;;;;;;;5054324;28;20001;-81
2021/04/22 03:31:40;;;;;;;;;;;;;;;;;;5037820;28;20017;-80
2021/04/22 03:34:05;;;;;;;;;;;;;;;;;;5057099;28;19912;-81
2021/04/22 03:36:31;;;;;;;;;;;;;;;;;;5057042;28;19916;-81
2021/04/22 03:38:56;;;;;;;;;;;;;;;;;;5073610;28;19919;-81
2021/04/22 03:41:21;;;;;;;;;;;;;;;;;;5074005;28;19922;-81
2021/04/22 03:43:47;;;;;;;;;;;;;;;;;;5074392;28;19999;-81
2021/04/22 03:46:12;;;;;;;;;;;;;;;;;;5074480;28;20397;-81
2021/04/22 03:48:37;;;;;;;;;;;;;;;;;;5074002;28;20006;-81
2021/04/22 03:51:03;;;;;;;;;;;;;;;;;;5074477;28;19944;-80
2021/04/22 03:53:28;;;;;;;;;;;;;;;;;;5057504;28;19920;-81
2021/04/22 03:55:53;;;;;;;;;;;;;;;;;;5074081;28;19912;-81
2021/04/22 03:58:19;;;;;;;;;;;;;;;;;;5073861;28;19916;-81
2021/04/22 04:00:44;;;;;;;;;;;;;;;;;;5090587;28;19920;-81
2021/04/22 04:03:09;;;;;;;;;;;;;;;;;;5090531;28;20384;-80
2021/04/22 04:05:35;;;;;;;;;;;;;;;;;;5038475;28;19947;-82
2021/04/22 04:08:00;;;;;;;;;;;;;;;;;;5037077;28;19952;-81
2021/04/22 04:10:25;;;;;;;;;;;;;;;;;;5037394;28;19912;-81
2021/04/22 04:12:51;;;;;;;;;;;;;;;;;;5046240;28;19916;-81
2021/04/22 04:15:16;;;;;;;;;;;;;;;;;;5065075;28;19916;-81
2021/04/22 04:17:41;;;;;;;;;;;;;;;;;;5072929;28;19957;-80
2021/04/22 04:20:07;;;;;;;;;;;;;;;;;;5057858;28;19919;-81
2021/04/22 04:22:32;;;;;;;;;;;;;;;;;;5056928;28;19912;-81
2021/04/22 04:24:58;;;;;;;;;;;;;;;;;;5073941;28;20373;-81
2021/04/22 04:27:23;;;;;;;;;;;;;;;;;;5056909;28;19912;-81
2021/04/22 04:29:48;;;;;;;;;;;;;;;;;;5060507;28;20113;-81
2021/04/22 04:32:14;;;;;;;;;;;;;;;;;;5070539;28;19924;-81
2021/04/22 04:34:39;;;;;;;;;;;;;;;;;;5040773;28;19912;-81
2021/04/22 04:37:04;;;;;;;;;;;;;;;;;;5028530;28;19930;-80
2021/04/22 04:39:30;;;;;;;;;;;;;;;;;;5076978;28;19916;-80
2021/04/22 04:41:55;;;;;;;;;;;;;;;;;;5060290;28;19916;-80
2021/04/22 04:44:20;;;;;;;;;;;;;;;;;;5077489;28;19916;-81
2021/04/22 04:46:45;;;;;;;;;;;;;;;;;;5075000;28;20282;-80
2021/04/22 04:49:11;;;;;;;;;;;;;;;;;;5057557;28;19912;-83
2021/04/22 04:51:36;;;;;;;;;;;;;;;;;;5057108;28;19912;-82
2021/04/22 04:54:02;;;;;;;;;;;;;;;;;;5053471;28;19916;-83
2021/04/22 04:56:28;;;;;;;;;;;;;;;;;;5063299;28;19923;-82
2021/04/22 04:58:54;;;;;;;;;;;;;;;;;;5075334;28;20015;-84
2021/04/22 05:01:19;;;;;;;;;;;;;;;;;;5063304;28;20097;-82
2021/04/22 05:03:44;;;;;;;;;;;;;;;;;;5039167;28;19928;-82
2021/04/22 05:06:10;;;;;;;;;;;;;;;;;;5087272;28;19920;-83
2021/04/22 05:08:35;;;;;;;;;;;;;;;;;;5062668;28;19920;-81
2021/04/22 05:11:01;;;;;;;;;;;;;;;;;;5066605;28;19916;-83
2021/04/22 05:13:27;;;;;;;;;;;;;;;;;;5064965;28;19916;-83
2021/04/22 05:15:52;;;;;;;;;;;;;;;;;;5074212;28;19920;-81
2021/04/22 05:18:18;;;;;;;;;;;;;;;;;;5091218;28;20338;-82
2021/04/22 05:20:43;;;;;;;;;;;;;;;;;;5060002;28;19957;-81
2021/04/22 05:23:08;;;;;;;;;;;;;;;;;;5059780;28;19942;-81
2021/04/22 05:25:34;;;;;;;;;;;;;;;;;;5060097;28;20055;-81
2021/04/22 05:28:00;;;;;;;;;;;;;;;;;;5072072;28;19922;-80
2021/04/22 05:30:25;;;;;;;;;;;;;;;;;;5076511;28;19916;-80
2021/04/22 05:32:51;;;;;;;;;;;;;;;;;;5076420;28;19957;-80
2021/04/22 05:35:16;;;;;;;;;;;;;;;;;;5076743;28;19912;-80
2021/04/22 05:37:42;;;;;;;;;;;;;;;;;;5075936;28;19916;-81
2021/04/22 05:40:07;;;;;;;;;;;;;;;;;;5067451;28;19923;-81
2021/04/22 05:42:32;;;;;;;;;;;;;;;;;;5069896;28;19938;-80
2021/04/22 05:44:58;;;;;;;;;;;;;;;;;;5076534;28;19988;-80
2021/04/22 05:47:23;;;;;;;;;;;;;;;;;;5090017;28;19919;-80
2021/04/22 05:49:48;;;;;;;;;;;;;;;;;;5082125;28;19920;-80
2021/04/22 05:52:13;;;;;;;;;;;;;;;;;;5049220;28;19961;-81
2021/04/22 05:54:39;;;;;;;;;;;;;;;;;;5075901;28;19916;-81
2021/04/22 05:57:04;;;;;;;;;;;;;;;;;;5058425;28;19912;-80
2021/04/22 05:59:30;;;;;;;;;;;;;;;;;;5072356;28;20019;-81
2021/04/22 06:01:55;;;;;;;;;;;;;;;;;;5059518;28;19955;-82
2021/04/22 06:04:20;;;;;;;;;;;;;;;;;;5057491;28;19930;-81
2021/04/22 06:06:46;;;;;;;;;;;;;;;;;;5055589;28;19923;-81
2021/04/22 06:09:11;;;;;;;;;;;;;;;;;;5039232;28;19912;-81
2021/04/22 06:11:36;;;;;;;;;;;;;;;;;;5038968;28;20351;-82
2021/04/22 06:14:02;;;;;;;;;;;;;;;;;;5040747;28;20369;-82
2021/04/22 06:16:27;;;;;;;;;;;;;;;;;;5075727;28;20010;-82
2021/04/22 06:18:52;;;;;;;;;;;;;;;;;;5073983;28;19916;-81
2021/04/22 06:21:17;;;;;;;;;;;;;;;;;;5075669;28;19912;-82
2021/04/22 06:23:43;;;;;;;;;;;;;;;;;;5075282;28;20321;-81
2021/04/22 06:26:08;;;;;;;;;;;;;;;;;;5074458;28;20006;-81
2021/04/22 06:28:33;;;;;;;;;;;;;;;;;;5071290;28;19951;-82
2021/04/22 06:30:59;;;;;;;;;;;;;;;;;;5068727;28;19916;-82
2021/04/22 06:33:24;;;;;;;;;;;;;;;;;;5058103;28;19919;-82
2021/04/22 06:35:49;;;;;;;;;;;;;;;;;;5043032;28;19928;-82
2021/04/22 06:38:15;;;;;;;;;;;;;;;;;;5074661;28;19916;-82
2021/04/22 06:40:40;;;;;;;;;;;;;;;;;;5034271;28;19924;-82
2021/04/22 06:43:08;;;;;;;;;;;;;;;;;;5068891;28;19969;-82
2021/04/22 06:45:33;;;;;;;;;;;;;;;;;;5058510;28;19916;-82
2021/04/22 06:47:58;;;;;;;;;;;;;;;;;;5074739;28;19923;-82
2021/04/22 06:50:23;;;;;;;;;;;;;;;;;;5090905;28;19916;-81
2021/04/22 06:52:49;;;;;;;;;;;;;;;;;;5077277;28;19951;-81
2021/04/22 06:55:18;;;;;;;;;;;;;;;;;;5071127;28;20278;-81
2021/04/22 06:57:44;;;;;;;;;;;;;;;;;;5051359;28;19916;-81
2021/04/22 07:00:09;;;;;;;;;;;;;;;;;;5058381;28;20389;-82
2021/04/22 07:02:35;;;;;;;;;;;;;;;;;;5074873;28;20015;-81
2021/04/22 07:05:00;;;;;;;;;;;;;;;;;;5058193;28;19969;-81
2021/04/22 07:07:25;;;;;;;;;;;;;;;;;;5057587;28;19912;-82
2021/04/22 07:09:51;;;;;;;;;;;;;;;;;;5044084;28;19934;-82
2021/04/22 07:12:16;;;;;;;;;;;;;;;;;;5046297;28;19962;-82
2021/04/22 07:14:41;;;;;;;;;;;;;;;;;;5039473;28;19977;-83
2021/04/22 07:17:07;;;;;;;;;;;;;;;;;;5072297;28;19952;-81
2021/04/22 07:19:32;;;;;;;;;;;;;;;;;;5072542;28;19912;-82
2021/04/22 07:21:58;;;;;;;;;;;;;;;;;;5041226;28;19965;-81
2021/04/22 07:24:23;;;;;;;;;;;;;;;;;;5054544;28;19960;-81
2021/04/22 07:26:49;;;;;;;;;;;;;;;;;;5037197;28;20472;-82
2021/04/22 07:29:14;;;;;;;;;;;;;;;;;;5054706;28;19912;-82
2021/04/22 07:31:39;;;;;;;;;;;;;;;;;;5038133;28;19913;-82
2021/04/22 07:34:05;;;;;;;;;;;;;;;;;;5021433;28;19916;-81
2021/04/22 07:36:30;;;;;;;;;;;;;;;;;;5040329;28;19976;-79
2021/04/22 07:38:55;;;;;;;;;;;;;;;;;;5074811;28;19927;-82
2021/04/22 07:41:21;;;;;;;;;;;;;;;;;;5073764;28;19947;-81
2021/04/22 07:43:46;;;;;;;;;;;;;;;;;;5069150;28;19916;-80
2021/04/22 07:46:12;;;;;;;;;;;;;;;;;;5057612;28;19927;-81
2021/04/22 07:48:37;;;;;;;;;;;;;;;;;;5074438;28;19912;-80
2021/04/22 07:51:02;;;;;;;;;;;;;;;;;;5074177;28;19912;-80
2021/04/22 07:53:28;;;;;;;;;;;;;;;;;;5062419;28;20002;-81
2021/04/22 07:55:53;;;;;;;;;;;;;;;;;;5077569;28;20403;-80
2021/04/22 07:58:18;;;;;;;;;;;;;;;;;;5077513;28;19915;-80
2021/04/22 08:01:04;;;;;;;;;;;;;;;;;;5064555;28;19918;-80
2021/04/22 08:03:29;;;;;;;;;;;;;;;;;;5059432;28;19920;-80
2021/04/22 08:05:55;;;;;;;;;;;;;;;;;;5093972;28;19912;-81
2021/04/22 08:08:21;;;;;;;;;;;;;;;;;;5063779;28;19923;-82
2021/04/22 08:10:46;;;;;;;;;;;;;;;;;;5074303;28;20286;-81
2021/04/22 08:13:12;;;;;;;;;;;;;;;;;;5057891;28;19924;-82
2021/04/22 08:15:37;;;;;;;;;;;;;;;;;;5058303;28;20378;-81
2021/04/22 08:18:02;;;;;;;;;;;;;;;;;;5061908;28;19966;-82
2021/04/22 08:20:28;;;;;;;;;;;;;;;;;;5077998;28;20004;-83
2021/04/22 08:23:13;;;;;;;;;;;;;;;;;;5080201;28;19919;-82
2021/04/22 08:25:59;;;;;;;;;;;;;;;;;;5079311;28;19912;-79
2021/04/22 08:28:45;;;;;;;;;;;;;;;;;;5078587;28;19961;-78
2021/04/22 08:31:32;;;;;;;;;;;;;;;;;;5067123;28;20019;-78
2021/04/22 08:34:18;;;;;;;;;;;;;;;;;;5080421;28;19919;-76
2021/04/22 08:37:04;;;;;;;;;;;;;;;;;;5080138;28;19965;-77
2021/04/22 08:39:49;;;;;;;;;;;;;;;;;;5079726;28;20373;-76
2021/04/22 08:42:35;;;;;;;;;;;;;;;;;;5078138;28;19973;-77
2021/04/22 08:45:20;;;;;;;;;;;;;;;;;;5070979;28;19920;-78
2021/04/22 08:48:06;;;;;;;;;;;;;;;;;;5079335;28;20011;-77
2021/04/22 08:50:52;;;;;;;;;;;;;;;;;;5059213;28;19916;-77
2021/04/22 08:53:43;;;;;;;;;;;;;;;;;;5059986;28;19970;-78
2021/04/22 08:56:29;;;;;;;;;;;;;;;;;;5058816;28;19916;-78
2021/04/22 08:59:15;;;;;;;;;;;;;;;;;;5074583;28;19912;-78
2021/04/22 09:02:01;;;;;;;;;;;;;;;;;;5046660;28;20297;-77
2021/04/22 09:04:47;;;;;;;;;;;;;;;;;;5059141;28;19952;-77
2021/04/22 09:07:32;;;;;;;;;;;;;;;;;;5045561;28;20433;-77
2021/04/22 09:10:19;;;;;;;;;;;;;;;;;;5047520;28;19962;-78
2021/04/22 09:13:05;;;;;;;;;;;;;;;;;;5058775;28;19924;-77
2021/04/22 09:15:58;;;;;;;;;;;;;;;;;;5072050;28;19920;-79
2021/04/22 09:18:53;;;;;;;;;;;;;;;;;;5059020;28;19966;-78
2021/04/22 09:21:41;;;;;;;;;;;;;;;;;;5045610;28;19966;-78
2021/04/22 09:24:26;;;;;;;;;;;;;;;;;;5063642;28;19916;-77
2021/04/22 09:27:15;;;;;;;;;;;;;;;;;;5064824;28;19912;-78
2021/04/22 09:30:01;;;;;;;;;;;;;;;;;;5045882;28;20105;-77
2021/04/22 09:32:46;;;;;;;;;;;;;;;;;;5046289;28;20320;-77
2021/04/22 09:35:32;;;;;;;;;;;;;;;;;;5060743;28;19924;-78
2021/04/22 09:38:18;;;;;;;;;;;;;;;;;;5060399;28;19912;-77
2021/04/22 09:41:14;;;;;;;;;;;;;;;;;;5056854;28;19912;-78
2021/04/22 09:44:00;;;;;;;;;;;;;;;;;;5079013;28;19924;-78
2021/04/22 09:46:48;;;;;;;;;;;;;;;;;;5065191;28;20011;-78
2021/04/22 09:49:42;;;;;;;;;;;;;;;;;;5078152;28;19912;-77
2021/04/22 09:52:32;;;;;;;;;;;;;;;;;;5069956;28;20392;-77
2021/04/22 09:55:18;;;;;;;;;;;;;;;;;;5058757;28;20259;-77
2021/04/22 09:58:04;;;;;;;;;;;;;;;;;;5058789;28;19912;-77
2021/04/22 10:00:51;;;;;;;;;;;;;;;;;;5058399;28;20011;-77
2021/04/22 10:03:36;;;;;;;;;;;;;;;;;;5058787;28;20267;-77
2021/04/22 10:06:22;;;;;;;;;;;;;;;;;;5057769;28;19912;-77
2021/04/22 10:09:08;;;;;;;;;;;;;;;;;;5057440;28;19912;-77
2021/04/22 10:11:53;;;;;;;;;;;;;;;;;;5058469;28;19913;-77
2021/04/22 10:14:39;;;;;;;;;;;;;;;;;;5058273;28;19916;-77
2021/04/22 10:17:25;;;;;;;;;;;;;;;;;;5058471;28;19913;-77
2021/04/22 10:20:11;;;;;;;;;;;;;;;;;;5058695;28;20692;-78
2021/04/22 10:22:57;;;;;;;;;;;;;;;;;;5060352;28;20362;-78
2021/04/22 10:25:45;;;;;;;;;;;;;;;;;;5068282;28;19923;-77
2021/04/22 10:28:31;;;;;;;;;;;;;;;;;;5080279;28;19928;-77
2021/04/22 10:31:16;;;;;;;;;;;;;;;;;;5066264;28;19917;-77
2021/04/22 10:34:02;;;;;;;;;;;;;;;;;;5078576;28;19913;-78
2021/04/22 10:36:48;;;;;;;;;;;;;;;;;;5072152;28;19919;-77
2021/04/22 10:39:33;;;;;;;;;;;;;;;;;;5072425;28;19958;-77
2021/04/22 10:42:19;;;;;;;;;;;;;;;;;;5059328;28;19923;-77
2021/04/22 10:45:06;;;;;;;;;;;;;;;;;;5072273;28;19917;-77
2021/04/22 10:47:51;;;;;;;;;;;;;;;;;;5087087;28;20340;-78
2021/04/22 10:50:39;;;;;;;;;;;;;;;;;;5059351;28;20561;-77
2021/04/22 10:53:24;;;;;;;;;;;;;;;;;;5057168;28;20370;-78
2021/04/22 10:56:10;;;;;;;;;;;;;;;;;;5077300;28;19939;-77
2021/04/22 10:58:55;;;;;;;;;;;;;;;;;;5062254;28;19912;-78
2021/04/22 11:01:41;;;;;;;;;;;;;;;;;;5076629;28;19923;-78
2021/04/22 11:04:33;;;;;;;;;;;;;;;;;;5076498;28;20247;-78
2021/04/22 11:07:20;;;;;;;;;;;;;;;;;;5075708;28;19995;-78
2021/04/22 11:10:12;;;;;;;;;;;;;;;;;;5076735;28;19989;-77
2021/04/22 11:13:27;;;;;;;;;;;;;;;;;;5062588;28;19916;-77
2021/04/22 11:16:13;;;;;;;;;;;;;;;;;;5084189;28;20365;-78
2021/04/22 11:18:58;;;;;;;;;;;;;;;;;;5061914;28;19922;-78
2021/04/22 11:21:50;;;;;;;;;;;;;;;;;;5063768;28;19912;-78
2021/04/22 11:24:37;;;;;;;;;;;;;;;;;;5090810;28;19916;-78
2021/04/22 11:27:23;;;;;;;;;;;;;;;;;;5075324;28;19947;-77
2021/04/22 11:30:09;;;;;;;;;;;;;;;;;;5061738;28;19912;-79
2021/04/22 11:32:55;;;;;;;;;;;;;;;;;;5063459;28;20348;-79
2021/04/22 11:35:40;;;;;;;;;;;;;;;;;;5062473;28;19912;-78
2021/04/22 11:38:26;;;;;;;;;;;;;;;;;;5062584;28;19916;-78
2021/04/22 11:41:11;;;;;;;;;;;;;;;;;;5063359;28;19924;-78
2021/04/22 11:44:00;;;;;;;;;;;;;;;;;;5063716;28;20308;-78
2021/04/22 11:46:46;;;;;;;;;;;;;;;;;;5076603;28;20382;-78
2021/04/22 11:49:31;;;;;;;;;;;;;;;;;;5062010;28;20015;-77
2021/04/22 11:52:21;;;;;;;;;;;;;;;;;;5076144;28;21078;-78
2021/04/22 11:55:26;;;;;;;;;;;;;;;;;;5075716;28;19924;-78
2021/04/22 11:58:22;;;;;;;;;;;;;;;;;;5091332;28;19921;-78
2021/04/22 12:01:08;;;;;;;;;;;;;;;;;;5061720;28;20011;-78
2021/04/22 12:03:53;;;;;;;;;;;;;;;;;;5076622;28;19912;-77
2021/04/22 12:06:39;;;;;;;;;;;;;;;;;;5076439;28;20401;-78
2021/04/22 12:09:28;;;;;;;;;;;;;;;;;;5076075;28;20010;-78
2021/04/22 12:12:23;;;;;;;;;;;;;;;;;;5075803;28;19916;-77
2021/04/22 12:15:09;;;;;;;;;;;;;;;;;;5074700;28;19927;-78
2021/04/22 12:17:55;;;;;;;;;;;;;;;;;;5076612;28;19912;-77
2021/04/22 12:20:40;;;;;;;;;;;;;;;;;;5061705;28;19920;-78
2021/04/22 12:23:26;;;;;;;;;;;;;;;;;;5075590;28;19916;-78
2021/04/22 12:26:19;;;;;;;;;;;;;;;;;;5075790;28;20273;-79
2021/04/22 12:29:05;;;;;;;;;;;;;;;;;;5075590;28;19918;-78
2021/04/22 12:31:58;;;;;;;;;;;;;;;;;;5075590;28;19922;-78
2021/04/22 12:34:43;;;;;;;;;;;;;;;;;;5075245;28;19912;-78
2021/04/22 12:37:29;;;;;;;;;;;;;;;;;;5075892;28;20045;-78
2021/04/22 12:40:14;;;;;;;;;;;;;;;;;;5061879;28;20010;-78
2021/04/22 12:43:00;;;;;;;;;;;;;;;;;;5074877;28;20436;-78
2021/04/22 12:45:46;;;;;;;;;;;;;;;;;;5060893;28;19931;-79
2021/04/22 12:48:31;;;;;;;;;;;;;;;;;;5075587;28;19916;-78
2021/04/22 12:51:17;;;;;;;;;;;;;;;;;;5057204;28;19916;-78
2021/04/22 12:54:03;;;;;;;;;;;;;;;;;;5065327;28;19916;-79
2021/04/22 12:56:48;;;;;;;;;;;;;;;;;;5065826;28;19912;-79
2021/04/22 12:59:34;;;;;;;;;;;;;;;;;;5064807;28;19912;-79
2021/04/22 13:02:20;;;;;;;;;;;;;;;;;;5065319;28;19966;-80
2021/04/22 13:05:06;;;;;;;;;;;;;;;;;;5078640;28;20385;-77
2021/04/22 13:07:52;;;;;;;;;;;;;;;;;;5064344;28;19916;-77
2021/04/22 13:10:40;;;;;;;;;;;;;;;;;;5079093;28;19923;-77
2021/04/22 13:13:26;;;;;;;;;;;;;;;;;;5064896;28;19924;-78
2021/04/22 13:16:12;;;;;;;;;;;;;;;;;;5068385;28;19978;-78
2021/04/22 13:18:59;;;;;;;;;;;;;;;;;;5068044;28;19912;-76
2021/04/22 13:21:58;;;;;;;;;;;;;;;;;;5070247;28;19960;-77
2021/04/22 13:24:24;;;;;;;;;;;;;;;;;;5075619;28;19919;-77
2021/04/22 13:26:53;;;;;;;;;;;;;;;;;;5059747;28;19912;-76
2021/04/22 13:29:19;;;;;;;;;;;;;;;;;;5076181;28;20343;-77
2021/04/22 13:31:44;;;;;;;;;;;;;;;;;;5051350;28;20014;-76
2021/04/22 13:34:11;;;;;;;;;;;;;;;;;;5093554;28;20289;-76
2021/04/22 13:36:40;;;;;;;;;;;;;;;;;;5076671;28;19916;-76
2021/04/22 13:39:05;;;;;;;;;;;;;;;;;;5076203;28;19912;-77
2021/04/22 13:41:31;;;;;;;;;;;;;;;;;;5059822;28;20375;-76
2021/04/22 13:43:57;;;;;;;;;;;;;;;;;;5076260;28;19926;-76
2021/04/22 13:46:22;;;;;;;;;;;;;;;;;;5059610;28;19923;-76
2021/04/22 13:48:52;;;;;;;;;;;;;;;;;;5059602;28;20315;-77
2021/04/22 13:51:17;;;;;;;;;;;;;;;;;;5094221;28;19918;-77
2021/04/22 13:53:43;;;;;;;;;;;;;;;;;;5075704;28;19916;-77
2021/04/22 13:56:08;;;;;;;;;;;;;;;;;;5076335;28;19919;-77
2021/04/22 13:58:35;;;;;;;;;;;;;;;;;;5092755;28;19912;-77
2021/04/22 14:01:01;;;;;;;;;;;;;;;;;;5092598;28;20412;-77
2021/04/22 14:03:34;;;;;;;;;;;;;;;;;;5093401;28;19916;-77
2021/04/22 14:06:00;;;;;;;;;;;;;;;;;;5075925;28;19912;-76
2021/04/22 14:08:29;;;;;;;;;;;;;;;;;;5058623;28;19927;-76
2021/04/22 14:10:58;;;;;;;;;;;;;;;;;;5075145;28;19919;-77
2021/04/22 14:13:24;;;;;;;;;;;;;;;;;;5091742;28;19916;-77
2021/04/22 14:15:49;;;;;;;;;;;;;;;;;;5072322;28;19921;-77
2021/04/22 14:18:15;;;;;;;;;;;;;;;;;;5064613;28;19912;-78
2021/04/22 14:20:40;;;;;;;;;;;;;;;;;;5073825;28;19989;-77
2021/04/22 14:23:06;;;;;;;;;;;;;;;;;;5091763;28;19926;-77
2021/04/22 14:25:31;;;;;;;;;;;;;;;;;;5058168;28;19920;-77
2021/04/22 14:27:57;;;;;;;;;;;;;;;;;;5058658;28;19912;-77
2021/04/22 14:30:22;;;;;;;;;;;;;;;;;;5075397;28;20428;-77
2021/04/22 14:32:47;;;;;;;;;;;;;;;;;;5092236;28;19919;-76
2021/04/22 14:35:13;;;;;;;;;;;;;;;;;;5091965;28;19912;-78
2021/04/22 14:37:38;;;;;;;;;;;;;;;;;;5091475;28;20434;-77
2021/04/22 14:40:04;;;;;;;;;;;;;;;;;;5074677;28;19912;-79
2021/04/22 14:42:29;;;;;;;;;;;;;;;;;;5074605;28;20386;-78
2021/04/22 14:45:01;;;;;;;;;;;;;;;;;;5091983;28;20010;-79
2021/04/22 14:47:26;;;;;;;;;;;;;;;;;;5091734;28;20003;-78
2021/04/22 14:49:51;;;;;;;;;;;;;;;;;;5075787;28;19944;-78
2021/04/22 14:52:17;;;;;;;;;;;;;;;;;;5074910;28;20419;-78
2021/04/22 14:54:42;;;;;;;;;;;;;;;;;;5074438;28;20430;-78
2021/04/22 14:57:07;;;;;;;;;;;;;;;;;;5074837;28;19916;-78
2021/04/22 14:59:33;;;;;;;;;;;;;;;;;;5058380;28;19913;-78
2021/04/22 15:01:58;;;;;;;;;;;;;;;;;;5058315;28;19912;-78
2021/04/22 15:04:23;;;;;;;;;;;;;;;;;;5074867;28;19912;-78
2021/04/22 15:06:50;;;;;;;;;;;;;;;;;;5057756;28;20270;-78
2021/04/22 15:09:15;;;;;;;;;;;;;;;;;;5074588;28;19948;-78
2021/04/22 15:11:40;;;;;;;;;;;;;;;;;;5092104;28;20004;-77
2021/04/22 15:14:06;;;;;;;;;;;;;;;;;;5040991;28;19931;-77
2021/04/22 15:16:31;;;;;;;;;;;;;;;;;;5075093;28;19926;-78
2021/04/22 15:18:56;;;;;;;;;;;;;;;;;;5054844;28;19948;-78
2021/04/22 15:21:21;;;;;;;;;;;;;;;;;;5054083;28;19913;-78
2021/04/22 15:23:47;;;;;;;;;;;;;;;;;;5054242;28;19912;-78
2021/04/22 15:26:12;;;;;;;;;;;;;;;;;;5071043;28;19920;-77
2021/04/22 15:28:37;;;;;;;;;;;;;;;;;;5088087;28;19956;-78
2021/04/22 15:31:02;;;;;;;;;;;;;;;;;;5087683;28;19913;-77
2021/04/22 15:33:28;;;;;;;;;;;;;;;;;;5071102;28;19916;-77
2021/04/22 15:35:53;;;;;;;;;;;;;;;;;;5070694;28;19935;-78
2021/04/22 15:38:18;;;;;;;;;;;;;;;;;;5070128;28;19966;-78
2021/04/22 15:40:44;;;;;;;;;;;;;;;;;;5087534;28;19962;-78
2021/04/22 15:43:10;;;;;;;;;;;;;;;;;;5087527;28;19943;-78
2021/04/22 15:45:36;;;;;;;;;;;;;;;;;;5087852;28;19956;-78
2021/04/22 15:48:01;;;;;;;;;;;;;;;;;;5087811;28;20374;-77
2021/04/22 15:50:27;;;;;;;;;;;;;;;;;;5070968;28;19912;-78
2021/04/22 15:52:52;;;;;;;;;;;;;;;;;;5086779;28;19939;-77
2021/04/22 15:55:18;;;;;;;;;;;;;;;;;;5090767;28;19919;-78
2021/04/22 15:57:45;;;;;;;;;;;;;;;;;;5073849;28;19912;-78
2021/04/22 16:00:11;;;;;;;;;;;;;;;;;;5074316;28;19912;-78
2021/04/22 16:02:36;;;;;;;;;;;;;;;;;;5057269;28;19927;-78
2021/04/22 16:05:02;;;;;;;;;;;;;;;;;;5057193;28;19912;-77
2021/04/22 16:07:27;;;;;;;;;;;;;;;;;;5073207;28;20282;-77
2021/04/22 16:09:52;;;;;;;;;;;;;;;;;;5057472;28;19912;-77
2021/04/22 16:12:19;;;;;;;;;;;;;;;;;;5057195;28;19916;-77
2021/04/22 16:14:44;;;;;;;;;;;;;;;;;;5090878;28;19942;-77
2021/04/22 16:17:09;;;;;;;;;;;;;;;;;;5073816;28;20392;-78
2021/04/22 16:19:35;;;;;;;;;;;;;;;;;;5087224;28;19955;-78
2021/04/22 16:22:00;;;;;;;;;;;;;;;;;;5071297;28;19916;-78
2021/04/22 16:24:25;;;;;;;;;;;;;;;;;;5060148;28;19974;-77
2021/04/22 16:26:51;;;;;;;;;;;;;;;;;;5061272;28;19923;-77
2021/04/22 16:29:16;;;;;;;;;;;;;;;;;;5061153;28;19923;-77
2021/04/22 16:31:41;;;;;;;;;;;;;;;;;;5061152;28;20374;-77
2021/04/22 16:34:07;;;;;;;;;;;;;;;;;;5077913;28;19919;-77
2021/04/22 16:36:32;;;;;;;;;;;;;;;;;;5094940;28;19951;-77
2021/04/22 16:38:58;;;;;;;;;;;;;;;;;;5060972;28;19917;-78
2021/04/22 16:41:24;;;;;;;;;;;;;;;;;;5044961;28;19997;-78
2021/04/22 16:43:49;;;;;;;;;;;;;;;;;;5077809;28;19920;-79
2021/04/22 16:46:15;;;;;;;;;;;;;;;;;;5077674;28;20023;-78
2021/04/22 16:48:40;;;;;;;;;;;;;;;;;;5061276;28;19944;-78
2021/04/22 16:51:05;;;;;;;;;;;;;;;;;;5077036;28;20262;-78
2021/04/22 16:53:31;;;;;;;;;;;;;;;;;;5077106;28;19920;-78
2021/04/22 16:55:56;;;;;;;;;;;;;;;;;;5077219;28;19927;-78
2021/04/22 16:58:21;;;;;;;;;;;;;;;;;;5060856;28;19919;-78
2021/04/22 17:00:47;;;;;;;;;;;;;;;;;;5060594;28;19912;-78
2021/04/22 17:03:12;;;;;;;;;;;;;;;;;;5060239;28;19999;-78
2021/04/22 17:05:38;;;;;;;;;;;;;;;;;;5060184;28;19912;-79
2021/04/22 17:08:03;;;;;;;;;;;;;;;;;;5060293;28;19947;-78
2021/04/22 17:10:29;;;;;;;;;;;;;;;;;;5076794;28;19951;-78
2021/04/22 17:12:54;;;;;;;;;;;;;;;;;;5060028;28;20282;-78